sensor_id;sensor_type;location;lat;lon;timestamp;pressure;altitude;pressure_sealevel;temperature;humidity
13407;BME280;6774;48.208;10.766;2023-02-12T00:00:16;97382.19;;;4.39;76.64
13407;BME280;6774;48.208;10.766;2023-02-12T00:02:44;97383.91;;;4.40;76.68
13407;BME280;6774;48.208;10.766;2023-02-12T00:05:12;97379.28;;;4.43;76.50
13407;BME280;6774;48.208;10.766;2023-02-12T00:07:43;97373.09;;;4.44;76.58
13407;BME280;6774;48.208;10.766;2023-02-12T00:10:11;97379.91;;;4.47;76.52
13407;BME280;6774;48.208;10.766;2023-02-12T00:12:38;97388.50;;;4.49;76.43
13407;BME280;6774;48.208;10.766;2023-02-12T00:15:07;97390.16;;;4.50;76.66
13407;BME280;6774;48.208;10.766;2023-02-12T00:17:34;97385.56;;;4.53;76.35
13407;BME280;6774;48.208;10.766;2023-02-12T00:20:02;97385.56;;;4.53;76.07
13407;BME280;6774;48.208;10.766;2023-02-12T00:22:30;97397.78;;;4.53;76.44
13407;BME280;6774;48.208;10.766;2023-02-12T00:24:59;97393.50;;;4.52;75.75
13407;BME280;6774;48.208;10.766;2023-02-12T00:27:27;97397.78;;;4.53;76.04
13407;BME280;6774;48.208;10.766;2023-02-12T00:29:55;97400.41;;;4.53;76.22
13407;BME280;6774;48.208;10.766;2023-02-12T00:32:24;97412.75;;;4.51;76.20
13407;BME280;6774;48.208;10.766;2023-02-12T00:34:52;97410.31;;;4.48;76.35
13407;BME280;6774;48.208;10.766;2023-02-12T00:37:20;97409.41;;;4.49;76.45
13407;BME280;6774;48.208;10.766;2023-02-12T00:39:48;97405.97;;;4.48;76.44
13407;BME280;6774;48.208;10.766;2023-02-12T00:42:17;97403.13;;;4.51;76.72
13407;BME280;6774;48.208;10.766;2023-02-12T00:44:45;97409.41;;;4.49;76.00
13407;BME280;6774;48.208;10.766;2023-02-12T00:47:13;97400.63;;;4.50;75.71
13407;BME280;6774;48.208;10.766;2023-02-12T00:49:42;97404.91;;;4.51;75.63
13407;BME280;6774;48.208;10.766;2023-02-12T00:52:10;97397.19;;;4.49;75.62
13407;BME280;6774;48.208;10.766;2023-02-12T00:54:38;97397.25;;;4.48;75.52
13407;BME280;6774;48.208;10.766;2023-02-12T00:57:06;97403.44;;;4.47;75.73
13407;BME280;6774;48.208;10.766;2023-02-12T00:59:35;97406.88;;;4.47;75.62
13407;BME280;6774;48.208;10.766;2023-02-12T01:02:05;97406.88;;;4.47;75.82
13407;BME280;6774;48.208;10.766;2023-02-12T01:04:33;97403.34;;;4.48;75.67
13407;BME280;6774;48.208;10.766;2023-02-12T01:07:01;97410.13;;;4.51;75.34
13407;BME280;6774;48.208;10.766;2023-02-12T01:09:29;97416.09;;;4.53;75.34
13407;BME280;6774;48.208;10.766;2023-02-12T01:11:58;97404.19;;;4.49;75.32
13407;BME280;6774;48.208;10.766;2023-02-12T01:14:27;97401.25;;;4.41;75.48
13407;BME280;6774;48.208;10.766;2023-02-12T01:16:56;97404.81;;;4.40;75.73
13407;BME280;6774;48.208;10.766;2023-02-12T01:19:25;97403.09;;;4.39;76.00
13407;BME280;6774;48.208;10.766;2023-02-12T01:21:53;97398.81;;;4.38;75.99
13407;BME280;6774;48.208;10.766;2023-02-12T01:24:21;97402.19;;;4.40;75.96
13407;BME280;6774;48.208;10.766;2023-02-12T01:26:49;97399.97;;;4.34;76.17
13407;BME280;6774;48.208;10.766;2023-02-12T01:29:17;97396.41;;;4.35;76.22
13407;BME280;6774;48.208;10.766;2023-02-12T01:31:45;97395.19;;;4.40;75.85
13407;BME280;6774;48.208;10.766;2023-02-12T01:34:15;97411.69;;;4.41;75.71
13407;BME280;6774;48.208;10.766;2023-02-12T01:36:43;97402.91;;;4.42;75.66
13407;BME280;6774;48.208;10.766;2023-02-12T01:39:11;97405.53;;;4.42;75.89
13407;BME280;6774;48.208;10.766;2023-02-12T01:41:41;97415.25;;;4.40;75.76
13407;BME280;6774;48.208;10.766;2023-02-12T01:44:13;97399.75;;;4.37;76.18
13407;BME280;6774;48.208;10.766;2023-02-12T01:46:45;97408.31;;;4.39;76.10
13407;BME280;6774;48.208;10.766;2023-02-12T01:49:19;97402.19;;;4.40;76.27
13407;BME280;6774;48.208;10.766;2023-02-12T01:51:50;97404.16;;;4.36;76.33
13407;BME280;6774;48.208;10.766;2023-02-12T01:54:21;97401.44;;;4.38;76.31
13407;BME280;6774;48.208;10.766;2023-02-12T01:56:51;97398.81;;;4.38;75.96
13407;BME280;6774;48.208;10.766;2023-02-12T01:59:20;97408.53;;;4.36;76.19
13407;BME280;6774;48.208;10.766;2023-02-12T02:01:48;97412.31;;;4.32;75.96
13407;BME280;6774;48.208;10.766;2023-02-12T02:04:23;97408.75;;;4.33;76.46
13407;BME280;6774;48.208;10.766;2023-02-12T02:06:55;97402.88;;;4.29;76.32
13407;BME280;6774;48.208;10.766;2023-02-12T02:09:25;97403.09;;;4.26;76.27
13407;BME280;6774;48.208;10.766;2023-02-12T02:11:54;97407.28;;;4.28;76.35
13407;BME280;6774;48.208;10.766;2023-02-12T02:14:40;97402.81;;;4.31;76.15
13407;BME280;6774;48.208;10.766;2023-02-12T02:17:19;97404.38;;;4.33;76.29
13407;BME280;6774;48.208;10.766;2023-02-12T02:20:20;97404.25;;;4.35;76.07
13407;BME280;6774;48.208;10.766;2023-02-12T02:23:07;97396.63;;;4.32;76.30
13407;BME280;6774;48.208;10.766;2023-02-12T02:25:49;97401.09;;;4.29;76.04
13407;BME280;6774;48.208;10.766;2023-02-12T02:28:47;97390.66;;;4.29;76.18
13407;BME280;6774;48.208;10.766;2023-02-12T02:31:23;97393.25;;;4.29;76.06
13407;BME280;6774;48.208;10.766;2023-02-12T02:33:56;97384.19;;;4.22;76.16
13407;BME280;6774;48.208;10.766;2023-02-12T02:36:34;97381.56;;;4.22;76.34
13407;BME280;6774;48.208;10.766;2023-02-12T02:39:17;97393.25;;;4.17;76.18
13407;BME280;6774;48.208;10.766;2023-02-12T02:41:50;97384.56;;;4.16;76.77
13407;BME280;6774;48.208;10.766;2023-02-12T02:44:27;97390.63;;;4.17;76.74
13407;BME280;6774;48.208;10.766;2023-02-12T02:47:00;97378.63;;;4.14;76.73
13407;BME280;6774;48.208;10.766;2023-02-12T02:49:36;97385.72;;;4.12;76.58
13407;BME280;6774;48.208;10.766;2023-02-12T02:52:08;97383.53;;;4.06;76.91
13407;BME280;6774;48.208;10.766;2023-02-12T02:54:40;97381.84;;;4.05;77.04
13407;BME280;6774;48.208;10.766;2023-02-12T02:57:13;97384.63;;;4.02;77.42
13407;BME280;6774;48.208;10.766;2023-02-12T02:59:46;97388.84;;;4.05;77.59
13407;BME280;6774;48.208;10.766;2023-02-12T03:02:20;97393.84;;;3.95;78.36
13407;BME280;6774;48.208;10.766;2023-02-12T03:04:53;97389.56;;;3.94;77.92
13407;BME280;6774;48.208;10.766;2023-02-12T03:07:24;97401.78;;;3.93;77.82
13407;BME280;6774;48.208;10.766;2023-02-12T03:09:58;97402.63;;;3.94;77.57
13407;BME280;6774;48.208;10.766;2023-02-12T03:12:31;97395.69;;;3.93;77.18
13407;BME280;6774;48.208;10.766;2023-02-12T03:15:06;97396.75;;;3.90;77.33
13407;BME280;6774;48.208;10.766;2023-02-12T03:17:38;97404.88;;;3.86;76.98
13407;BME280;6774;48.208;10.766;2023-02-12T03:20:12;97394.53;;;3.84;76.93
13407;BME280;6774;48.208;10.766;2023-02-12T03:22:43;97383.44;;;3.81;77.40
13407;BME280;6774;48.208;10.766;2023-02-12T03:25:17;97387.72;;;3.82;77.17
13407;BME280;6774;48.208;10.766;2023-02-12T03:27:52;97390.66;;;3.77;77.05
13407;BME280;6774;48.208;10.766;2023-02-12T03:30:24;97395.81;;;3.64;76.31
13407;BME280;6774;48.208;10.766;2023-02-12T03:33:04;97404.44;;;3.52;77.42
13407;BME280;6774;48.208;10.766;2023-02-12T03:35:37;97401.44;;;3.58;77.61
13407;BME280;6774;48.208;10.766;2023-02-12T03:38:14;97401.22;;;3.61;77.47
13407;BME280;6774;48.208;10.766;2023-02-12T03:40:50;97395.28;;;3.59;77.87
13407;BME280;6774;48.208;10.766;2023-02-12T03:43:26;97398.06;;;3.56;78.50
13407;BME280;6774;48.208;10.766;2023-02-12T03:45:59;97410.78;;;3.48;78.83
13407;BME280;6774;48.208;10.766;2023-02-12T03:48:35;97414.88;;;3.52;78.55
13407;BME280;6774;48.208;10.766;2023-02-12T03:51:13;97415.44;;;3.57;78.60
13407;BME280;6774;48.208;10.766;2023-02-12T03:53:43;97408.50;;;3.56;78.48
13407;BME280;6774;48.208;10.766;2023-02-12T03:56:13;97399.78;;;3.57;78.31
13407;BME280;6774;48.208;10.766;2023-02-12T03:58:44;97416.06;;;3.61;77.63
13407;BME280;6774;48.208;10.766;2023-02-12T04:01:13;97416.16;;;3.59;77.80
13407;BME280;6774;48.208;10.766;2023-02-12T04:03:42;97408.13;;;3.62;77.72
13407;BME280;6774;48.208;10.766;2023-02-12T04:06:18;97403.63;;;3.64;76.88
13407;BME280;6774;48.208;10.766;2023-02-12T04:08:46;97408.97;;;3.63;77.63
13407;BME280;6774;48.208;10.766;2023-02-12T04:11:21;97414.00;;;3.66;77.34
13407;BME280;6774;48.208;10.766;2023-02-12T04:14:05;97414.28;;;3.61;77.14
13407;BME280;6774;48.208;10.766;2023-02-12T04:16:39;97411.28;;;3.67;77.20
13407;BME280;6774;48.208;10.766;2023-02-12T04:19:12;97409.41;;;3.69;76.44
13407;BME280;6774;48.208;10.766;2023-02-12T04:21:52;97412.22;;;3.66;76.32
13407;BME280;6774;48.208;10.766;2023-02-12T04:24:29;97425.34;;;3.65;76.22
13407;BME280;6774;48.208;10.766;2023-02-12T04:27:09;97426.38;;;3.77;75.59
13407;BME280;6774;48.208;10.766;2023-02-12T04:29:44;97420.94;;;3.80;74.49
13407;BME280;6774;48.208;10.766;2023-02-12T04:32:17;97428.16;;;3.76;75.22
13407;BME280;6774;48.208;10.766;2023-02-12T04:34:51;97426.50;;;3.61;75.31
13407;BME280;6774;48.208;10.766;2023-02-12T04:37:26;97436.69;;;3.51;76.62
13407;BME280;6774;48.208;10.766;2023-02-12T04:39:58;97439.81;;;3.56;76.34
13407;BME280;6774;48.208;10.766;2023-02-12T04:42:26;97447.75;;;3.55;76.93
13407;BME280;6774;48.208;10.766;2023-02-12T04:44:54;97451.97;;;3.57;76.73
13407;BME280;6774;48.208;10.766;2023-02-12T04:47:22;97450.94;;;3.60;76.58
13407;BME280;6774;48.208;10.766;2023-02-12T04:49:51;97444.19;;;3.70;77.28
13407;BME280;6774;48.208;10.766;2023-02-12T04:52:19;97439.06;;;3.68;76.93
13407;BME280;6774;48.208;10.766;2023-02-12T04:54:47;97434.69;;;3.69;77.28
13407;BME280;6774;48.208;10.766;2023-02-12T04:57:14;97440.19;;;3.64;77.48
13407;BME280;6774;48.208;10.766;2023-02-12T04:59:42;97442.63;;;3.67;77.21
13407;BME280;6774;48.208;10.766;2023-02-12T05:02:10;97440.94;;;3.66;77.70
13407;BME280;6774;48.208;10.766;2023-02-12T05:04:38;97443.72;;;3.78;76.69
13407;BME280;6774;48.208;10.766;2023-02-12T05:07:07;97445.59;;;3.76;75.61
13407;BME280;6774;48.208;10.766;2023-02-12T05:09:35;97450.25;;;3.70;75.86
13407;BME280;6774;48.208;10.766;2023-02-12T05:12:03;97438.59;;;3.76;75.58
13407;BME280;6774;48.208;10.766;2023-02-12T05:14:32;97434.31;;;3.75;74.75
13407;BME280;6774;48.208;10.766;2023-02-12T05:17:00;97433.44;;;3.75;74.77
13407;BME280;6774;48.208;10.766;2023-02-12T05:19:28;97433.44;;;3.75;74.69
13407;BME280;6774;48.208;10.766;2023-02-12T05:21:55;97434.38;;;3.74;74.72
13407;BME280;6774;48.208;10.766;2023-02-12T05:24:24;97433.38;;;3.76;74.58
13407;BME280;6774;48.208;10.766;2023-02-12T05:26:52;97438.47;;;3.78;74.41
13407;BME280;6774;48.208;10.766;2023-02-12T05:29:20;97438.38;;;3.79;74.41
13407;BME280;6774;48.208;10.766;2023-02-12T05:31:48;97441.63;;;3.83;74.34
13407;BME280;6774;48.208;10.766;2023-02-12T05:34:16;97437.44;;;3.80;74.58
13407;BME280;6774;48.208;10.766;2023-02-12T05:36:44;97434.72;;;3.82;74.10
13407;BME280;6774;48.208;10.766;2023-02-12T05:39:12;97440.16;;;3.79;74.65
13407;BME280;6774;48.208;10.766;2023-02-12T05:41:41;97440.38;;;3.76;74.74
13407;BME280;6774;48.208;10.766;2023-02-12T05:44:10;97446.50;;;3.75;74.87
13407;BME280;6774;48.208;10.766;2023-02-12T05:46:38;97447.44;;;3.74;75.47
13407;BME280;6774;48.208;10.766;2023-02-12T05:49:06;97450.81;;;3.76;75.13
13407;BME280;6774;48.208;10.766;2023-02-12T05:51:34;97447.25;;;3.77;75.71
13407;BME280;6774;48.208;10.766;2023-02-12T05:54:04;97450.97;;;3.72;75.63
13407;BME280;6774;48.208;10.766;2023-02-12T05:56:34;97456.03;;;3.76;75.38
13407;BME280;6774;48.208;10.766;2023-02-12T05:59:06;97452.47;;;3.77;75.99
13407;BME280;6774;48.208;10.766;2023-02-12T06:01:36;97454.16;;;3.78;76.18
13407;BME280;6774;48.208;10.766;2023-02-12T06:04:07;97450.59;;;3.79;76.35
13407;BME280;6774;48.208;10.766;2023-02-12T06:06:38;97459.38;;;3.78;76.14
13407;BME280;6774;48.208;10.766;2023-02-12T06:09:08;97462.72;;;3.80;76.17
13407;BME280;6774;48.208;10.766;2023-02-12T06:11:36;97469.22;;;3.87;76.88
13407;BME280;6774;48.208;10.766;2023-02-12T06:14:07;97467.56;;;3.86;76.60
13407;BME280;6774;48.208;10.766;2023-02-12T06:16:35;97472.78;;;3.86;76.95
13407;BME280;6774;48.208;10.766;2023-02-12T06:19:04;97465.69;;;3.88;76.92
13407;BME280;6774;48.208;10.766;2023-02-12T06:21:32;97478.28;;;3.81;76.89
13407;BME280;6774;48.208;10.766;2023-02-12T06:24:00;97475.22;;;3.75;76.82
13407;BME280;6774;48.208;10.766;2023-02-12T06:26:28;97468.53;;;3.70;77.00
13407;BME280;6774;48.208;10.766;2023-02-12T06:28:56;97475.41;;;3.71;77.39
13407;BME280;6774;48.208;10.766;2023-02-12T06:31:27;97473.53;;;3.74;77.34
13407;BME280;6774;48.208;10.766;2023-02-12T06:33:58;97479.81;;;3.71;76.96
13407;BME280;6774;48.208;10.766;2023-02-12T06:36:28;97477.66;;;3.63;77.51
13407;BME280;6774;48.208;10.766;2023-02-12T06:38:56;97476.00;;;3.62;77.48
13407;BME280;6774;48.208;10.766;2023-02-12T06:41:24;97475.06;;;3.63;77.50
13407;BME280;6774;48.208;10.766;2023-02-12T06:43:51;97482.72;;;3.66;77.23
13407;BME280;6774;48.208;10.766;2023-02-12T06:46:20;97479.34;;;3.64;77.63
13407;BME280;6774;48.208;10.766;2023-02-12T06:48:51;97483.63;;;3.65;77.76
13407;BME280;6774;48.208;10.766;2023-02-12T06:51:20;97491.91;;;3.72;77.97
13407;BME280;6774;48.208;10.766;2023-02-12T06:53:50;97492.59;;;3.76;77.93
13407;BME280;6774;48.208;10.766;2023-02-12T06:56:20;97499.66;;;3.74;78.02
13407;BME280;6774;48.208;10.766;2023-02-12T06:58:52;97497.81;;;3.76;78.41
13407;BME280;6774;48.208;10.766;2023-02-12T07:01:22;97502.00;;;3.78;78.49
13407;BME280;6774;48.208;10.766;2023-02-12T07:03:54;97498.91;;;3.86;78.05
13407;BME280;6774;48.208;10.766;2023-02-12T07:06:23;97498.69;;;3.89;78.17
13407;BME280;6774;48.208;10.766;2023-02-12T07:08:51;97507.09;;;3.94;78.02
13407;BME280;6774;48.208;10.766;2023-02-12T07:11:22;97496.22;;;4.00;77.87
13407;BME280;6774;48.208;10.766;2023-02-12T07:13:50;97491.66;;;4.04;77.72
13407;BME280;6774;48.208;10.766;2023-02-12T07:16:18;97484.56;;;4.06;77.46
13407;BME280;6774;48.208;10.766;2023-02-12T07:18:46;97488.75;;;4.08;77.25
13407;BME280;6774;48.208;10.766;2023-02-12T07:21:15;97489.47;;;4.10;76.93
13407;BME280;6774;48.208;10.766;2023-02-12T07:23:45;97493.59;;;4.14;76.65
13407;BME280;6774;48.208;10.766;2023-02-12T07:26:16;97496.09;;;4.16;76.96
13407;BME280;6774;48.208;10.766;2023-02-12T07:28:45;97498.38;;;4.20;76.79
13407;BME280;6774;48.208;10.766;2023-02-12T07:31:15;97499.88;;;4.24;77.24
13407;BME280;6774;48.208;10.766;2023-02-12T07:33:44;97491.72;;;4.29;76.72
13407;BME280;6774;48.208;10.766;2023-02-12T07:36:16;97498.34;;;4.35;76.30
13407;BME280;6774;48.208;10.766;2023-02-12T07:38:44;97489.56;;;4.36;76.34
13407;BME280;6774;48.208;10.766;2023-02-12T07:41:13;97485.81;;;4.40;76.77
13407;BME280;6774;48.208;10.766;2023-02-12T07:43:44;97489.91;;;4.44;76.48
13407;BME280;6774;48.208;10.766;2023-02-12T07:46:14;97485.22;;;4.49;76.27
13407;BME280;6774;48.208;10.766;2023-02-12T07:48:43;97483.13;;;4.54;75.87
13407;BME280;6774;48.208;10.766;2023-02-12T07:51:13;97477.59;;;4.59;75.81
13407;BME280;6774;48.208;10.766;2023-02-12T07:53:43;97472.78;;;4.65;75.70
13407;BME280;6774;48.208;10.766;2023-02-12T07:56:13;97478.34;;;4.73;75.13
13407;BME280;6774;48.208;10.766;2023-02-12T07:58:42;97470.09;;;4.79;74.60
13407;BME280;6774;48.208;10.766;2023-02-12T08:01:16;97471.34;;;4.87;74.82
13407;BME280;6774;48.208;10.766;2023-02-12T08:03:45;97474.28;;;4.95;74.69
13407;BME280;6774;48.208;10.766;2023-02-12T08:06:15;97471.03;;;5.04;74.73
13407;BME280;6774;48.208;10.766;2023-02-12T08:08:46;97468.63;;;5.13;75.17
13407;BME280;6774;48.208;10.766;2023-02-12T08:11:15;97463.78;;;5.20;75.63
13407;BME280;6774;48.208;10.766;2023-02-12T08:13:44;97464.09;;;5.28;75.95
13407;BME280;6774;48.208;10.766;2023-02-12T08:16:14;97452.25;;;5.35;76.57
13407;BME280;6774;48.208;10.766;2023-02-12T08:18:43;97461.88;;;5.48;77.02
13407;BME280;6774;48.208;10.766;2023-02-12T08:21:13;97458.50;;;5.58;77.38
13407;BME280;6774;48.208;10.766;2023-02-12T08:23:41;97452.50;;;5.69;77.81
13407;BME280;6774;48.208;10.766;2023-02-12T08:26:12;97455.91;;;5.82;77.58
13407;BME280;6774;48.208;10.766;2023-02-12T08:28:43;97455.28;;;5.91;76.99
13407;BME280;6774;48.208;10.766;2023-02-12T08:31:12;97456.28;;;6.02;77.11
13407;BME280;6774;48.208;10.766;2023-02-12T08:33:40;97453.50;;;6.16;77.06
13407;BME280;6774;48.208;10.766;2023-02-12T08:36:10;97456.41;;;6.24;77.30
13407;BME280;6774;48.208;10.766;2023-02-12T08:38:38;97451.69;;;6.40;77.54
13407;BME280;6774;48.208;10.766;2023-02-12T08:41:07;97455.47;;;6.71;78.15
13407;BME280;6774;48.208;10.766;2023-02-12T08:43:37;97462.09;;;6.99;77.15
13407;BME280;6774;48.208;10.766;2023-02-12T08:46:08;97456.63;;;7.36;76.00
13407;BME280;6774;48.208;10.766;2023-02-12T08:48:38;97453.50;;;7.53;75.75
13407;BME280;6774;48.208;10.766;2023-02-12T08:51:08;97469.88;;;8.11;75.07
13407;BME280;6774;48.208;10.766;2023-02-12T08:53:37;97464.06;;;8.40;73.08
13407;BME280;6774;48.208;10.766;2023-02-12T08:56:06;97464.75;;;8.53;72.22
13407;BME280;6774;48.208;10.766;2023-02-12T08:58:34;97466.13;;;8.57;72.72
13407;BME280;6774;48.208;10.766;2023-02-12T09:01:08;97464.59;;;8.75;72.49
13407;BME280;6774;48.208;10.766;2023-02-12T09:03:36;97464.72;;;8.95;72.27
13407;BME280;6774;48.208;10.766;2023-02-12T09:06:05;97465.56;;;9.16;70.56
13407;BME280;6774;48.208;10.766;2023-02-12T09:08:34;97456.69;;;9.48;69.85
13407;BME280;6774;48.208;10.766;2023-02-12T09:11:04;97457.88;;;9.74;68.62
13407;BME280;6774;48.208;10.766;2023-02-12T09:13:32;97454.59;;;9.91;68.02
13407;BME280;6774;48.208;10.766;2023-02-12T09:16:01;97455.06;;;10.06;68.50
13407;BME280;6774;48.208;10.766;2023-02-12T09:18:30;97458.00;;;10.32;67.69
13407;BME280;6774;48.208;10.766;2023-02-12T09:21:00;97461.38;;;10.53;66.72
13407;BME280;6774;48.208;10.766;2023-02-12T09:23:29;97464.16;;;10.62;66.15
13407;BME280;6774;48.208;10.766;2023-02-12T09:25:57;97455.50;;;10.98;65.15
13407;BME280;6774;48.208;10.766;2023-02-12T09:28:25;97451.78;;;11.28;64.45
13407;BME280;6774;48.208;10.766;2023-02-12T09:30:53;97450.94;;;11.28;63.83
13407;BME280;6774;48.208;10.766;2023-02-12T09:33:22;97453.63;;;11.55;63.34
13407;BME280;6774;48.208;10.766;2023-02-12T09:35:52;97450.41;;;11.61;63.35
13407;BME280;6774;48.208;10.766;2023-02-12T09:38:20;97450.59;;;12.05;62.91
13407;BME280;6774;48.208;10.766;2023-02-12T09:40:58;97447.69;;;12.26;62.15
13407;BME280;6774;48.208;10.766;2023-02-12T09:43:34;97452.84;;;11.82;62.24
13407;BME280;6774;48.208;10.766;2023-02-12T09:46:11;97443.47;;;11.14;63.75
13407;BME280;6774;48.208;10.766;2023-02-12T09:48:49;97442.72;;;11.31;66.14
13407;BME280;6774;48.208;10.766;2023-02-12T09:51:21;97437.53;;;12.57;62.76
13407;BME280;6774;48.208;10.766;2023-02-12T09:53:58;97447.66;;;12.62;60.92
13407;BME280;6774;48.208;10.766;2023-02-12T09:56:27;97447.81;;;12.60;61.27
13407;BME280;6774;48.208;10.766;2023-02-12T09:58:58;97442.97;;;13.17;60.42
13407;BME280;6774;48.208;10.766;2023-02-12T10:01:27;97438.94;;;13.65;59.03
13407;BME280;6774;48.208;10.766;2023-02-12T10:03:55;97435.44;;;14.15;57.20
13407;BME280;6774;48.208;10.766;2023-02-12T10:06:27;97442.69;;;13.97;56.83
13407;BME280;6774;48.208;10.766;2023-02-12T10:09:05;97446.53;;;12.64;58.77
13407;BME280;6774;48.208;10.766;2023-02-12T10:11:59;97458.28;;;11.81;61.23
13407;BME280;6774;48.208;10.766;2023-02-12T10:15:11;97466.00;;;11.18;62.92
13407;BME280;6774;48.208;10.766;2023-02-12T10:17:43;97464.97;;;10.52;65.83
13407;BME280;6774;48.208;10.766;2023-02-12T10:20:30;97458.25;;;10.19;67.07
13407;BME280;6774;48.208;10.766;2023-02-12T10:23:14;97458.53;;;10.07;67.30
13407;BME280;6774;48.208;10.766;2023-02-12T10:25:49;97467.03;;;9.60;68.38
13407;BME280;6774;48.208;10.766;2023-02-12T10:28:24;97467.03;;;9.70;68.20
13407;BME280;6774;48.208;10.766;2023-02-12T10:30:55;97463.69;;;9.68;68.62
13407;BME280;6774;48.208;10.766;2023-02-12T10:33:27;97460.59;;;9.53;68.78
13407;BME280;6774;48.208;10.766;2023-02-12T10:36:01;97460.44;;;9.45;69.98
13407;BME280;6774;48.208;10.766;2023-02-12T10:38:35;97464.41;;;9.39;69.55
13407;BME280;6774;48.208;10.766;2023-02-12T10:41:05;97452.38;;;9.96;68.33
13407;BME280;6774;48.208;10.766;2023-02-12T10:43:33;97462.00;;;10.17;66.92
13407;BME280;6774;48.208;10.766;2023-02-12T10:46:01;97455.13;;;10.54;67.13
13407;BME280;6774;48.208;10.766;2023-02-12T10:48:31;97454.28;;;10.54;65.72
13407;BME280;6774;48.208;10.766;2023-02-12T10:51:10;97452.75;;;10.51;65.89
13407;BME280;6774;48.208;10.766;2023-02-12T10:53:44;97448.88;;;10.46;66.71
13407;BME280;6774;48.208;10.766;2023-02-12T10:56:18;97443.44;;;10.47;66.33
13407;BME280;6774;48.208;10.766;2023-02-12T10:58:52;97440.72;;;11.05;65.95
13407;BME280;6774;48.208;10.766;2023-02-12T11:01:24;97443.63;;;11.49;64.85
13407;BME280;6774;48.208;10.766;2023-02-12T11:03:53;97442.47;;;11.61;63.29
13407;BME280;6774;48.208;10.766;2023-02-12T11:06:23;97432.38;;;11.47;63.58
13407;BME280;6774;48.208;10.766;2023-02-12T11:08:55;97438.91;;;11.53;63.40
13407;BME280;6774;48.208;10.766;2023-02-12T11:11:26;97438.47;;;11.85;63.21
13407;BME280;6774;48.208;10.766;2023-02-12T11:13:57;97431.25;;;13.02;60.80
13407;BME280;6774;48.208;10.766;2023-02-12T11:16:31;97426.19;;;13.77;58.62
13407;BME280;6774;48.208;10.766;2023-02-12T11:19:02;97428.94;;;13.59;58.15
13407;BME280;6774;48.208;10.766;2023-02-12T11:21:31;97427.22;;;12.90;60.06
13407;BME280;6774;48.208;10.766;2023-02-12T11:24:27;97427.88;;;12.92;60.54
13407;BME280;6774;48.208;10.766;2023-02-12T11:27:21;97430.78;;;12.80;60.39
13407;BME280;6774;48.208;10.766;2023-02-12T11:30:11;97416.16;;;13.20;59.93
13407;BME280;6774;48.208;10.766;2023-02-12T11:32:39;97424.69;;;13.14;59.36
13407;BME280;6774;48.208;10.766;2023-02-12T11:35:12;97421.44;;;12.94;59.54
13407;BME280;6774;48.208;10.766;2023-02-12T11:37:45;97419.41;;;13.14;60.28
13407;BME280;6774;48.208;10.766;2023-02-12T11:40:18;97423.50;;;13.34;59.64
13407;BME280;6774;48.208;10.766;2023-02-12T11:42:50;97426.69;;;13.12;59.66
13407;BME280;6774;48.208;10.766;2023-02-12T11:45:21;97428.19;;;13.41;59.42
13407;BME280;6774;48.208;10.766;2023-02-12T11:47:51;97425.59;;;12.97;59.49
13407;BME280;6774;48.208;10.766;2023-02-12T11:50:24;97432.63;;;12.62;60.55
13407;BME280;6774;48.208;10.766;2023-02-12T11:52:57;97424.72;;;12.70;60.23
13407;BME280;6774;48.208;10.766;2023-02-12T11:55:29;97426.88;;;12.49;61.02
13407;BME280;6774;48.208;10.766;2023-02-12T11:58:06;97421.75;;;12.30;61.35
13407;BME280;6774;48.208;10.766;2023-02-12T12:00:45;97433.22;;;12.20;61.44
13407;BME280;6774;48.208;10.766;2023-02-12T12:03:16;97431.91;;;12.07;61.84
13407;BME280;6774;48.208;10.766;2023-02-12T12:05:50;97434.25;;;11.92;63.44
13407;BME280;6774;48.208;10.766;2023-02-12T12:08:21;97427.19;;;12.46;62.68
13407;BME280;6774;48.208;10.766;2023-02-12T12:10:56;97423.97;;;12.78;61.86
13407;BME280;6774;48.208;10.766;2023-02-12T12:13:30;97412.41;;;12.61;61.25
13407;BME280;6774;48.208;10.766;2023-02-12T12:16:06;97419.97;;;12.03;62.49
13407;BME280;6774;48.208;10.766;2023-02-12T12:18:58;97419.47;;;11.44;63.50
13407;BME280;6774;48.208;10.766;2023-02-12T12:21:53;97419.00;;;11.11;64.29
13407;BME280;6774;48.208;10.766;2023-02-12T12:24:25;97424.84;;;11.05;64.65
13407;BME280;6774;48.208;10.766;2023-02-12T12:27:02;97409.31;;;11.02;65.12
13407;BME280;6774;48.208;10.766;2023-02-12T12:29:47;97411.63;;;11.52;65.62
13407;BME280;6774;48.208;10.766;2023-02-12T12:32:20;97411.22;;;11.75;64.42
13407;BME280;6774;48.208;10.766;2023-02-12T12:34:50;97406.59;;;11.77;63.52
13407;BME280;6774;48.208;10.766;2023-02-12T12:37:29;97404.75;;;11.87;63.67
13407;BME280;6774;48.208;10.766;2023-02-12T12:40:18;97400.53;;;11.94;63.11
13407;BME280;6774;48.208;10.766;2023-02-12T12:43:02;97404.88;;;12.31;62.66
13407;BME280;6774;48.208;10.766;2023-02-12T12:45:51;97393.16;;;13.03;61.66
13407;BME280;6774;48.208;10.766;2023-02-12T12:48:32;97390.56;;;13.11;60.63
13407;BME280;6774;48.208;10.766;2023-02-12T12:51:13;97380.38;;;13.24;59.61
13407;BME280;6774;48.208;10.766;2023-02-12T12:53:54;97375.03;;;12.90;60.36
13407;BME280;6774;48.208;10.766;2023-02-12T12:56:46;97381.78;;;12.85;60.10
13407;BME280;6774;48.208;10.766;2023-02-12T12:59:51;97369.06;;;12.88;60.70
13407;BME280;6774;48.208;10.766;2023-02-12T13:03:04;97374.66;;;12.59;61.57
13407;BME280;6774;48.208;10.766;2023-02-12T13:06:14;97372.56;;;12.45;61.52
13407;BME280;6774;48.208;10.766;2023-02-12T13:09:00;97371.69;;;12.18;61.63
13407;BME280;6774;48.208;10.766;2023-02-12T13:11:38;97367.47;;;12.51;61.95
13407;BME280;6774;48.208;10.766;2023-02-12T13:14:23;97366.34;;;12.54;61.85
13407;BME280;6774;48.208;10.766;2023-02-12T13:16:59;97368.97;;;12.28;61.77
13407;BME280;6774;48.208;10.766;2023-02-12T13:19:41;97354.16;;;12.43;60.98
13407;BME280;6774;48.208;10.766;2023-02-12T13:22:15;97360.94;;;12.02;62.65
13407;BME280;6774;48.208;10.766;2023-02-12T13:24:49;97366.16;;;11.66;62.83
13407;BME280;6774;48.208;10.766;2023-02-12T13:27:21;97368.34;;;11.81;62.98
13407;BME280;6774;48.208;10.766;2023-02-12T13:29:51;97369.56;;;11.77;63.00
13407;BME280;6774;48.208;10.766;2023-02-12T13:32:26;97364.03;;;11.80;62.62
13407;BME280;6774;48.208;10.766;2023-02-12T13:34:55;97363.59;;;11.75;63.41